Time;durP1;ratioP1;P1;durP2;ratioP2;P2;SDS_P1;SDS_P2;PMS_P1;PMS_P2;Temp;Humidity;BMP_temperature;BMP_pressure;BME280_temperature;BME280_humidity;BME280_pressure;Samples;Min_cycle;Max_cycle;Signal;HPM_P1;HPM_P2
2023/08/29 00:00:10;;;;;;;2.92;2.05;;;;;;;;;;5848819;28;20053;-72
2023/08/29 00:03:03;;;;;;;2.30;1.58;;;;;;;;;;5875234;28;20491;-74
2023/08/29 00:06:02;;;;;;;2.05;1.42;;;;;;;;;;5889844;28;20037;-73
2023/08/29 00:08:53;;;;;;;;;;;;;;;;;;5872263;28;20048;-72
2023/08/29 00:11:43;;;;;;;2.75;1.95;;;;;;;;;;5871438;28;19920;-72
2023/08/29 00:14:37;;;;;;;2.85;2.05;;;;;;;;;;5871838;28;20471;-72
2023/08/29 00:17:31;;;;;;;5.30;1.38;;;;;;;;;;5888671;28;20091;-72
2023/08/29 00:20:22;;;;;;;4.47;2.55;;;;;;;;;;5887870;28;20186;-72
2023/08/29 00:23:12;;;;;;;4.07;2.03;;;;;;;;;;5888822;28;20057;-74
2023/08/29 00:26:03;;;;;;;8.00;2.63;;;;;;;;;;5888950;28;20056;-73
2023/08/29 00:28:54;;;;;;;1.95;1.48;;;;;;;;;;5889426;28;20041;-73
2023/08/29 00:31:45;;;;;;;1.60;1.13;;;;;;;;;;5888899;28;20045;-73
2023/08/29 00:34:36;;;;;;;2.28;1.90;;;;;;;;;;5889064;28;20044;-72
2023/08/29 00:37:27;;;;;;;3.95;2.55;;;;;;;;;;5889207;28;20399;-71
2023/08/29 00:40:18;;;;;;;2.33;1.67;;;;;;;;;;5888954;28;20052;-71
2023/08/29 00:43:09;;;;;;;3.83;2.10;;;;;;;;;;5888299;28;20484;-71
2023/08/29 00:45:59;;;;;;;3.58;1.80;;;;;;;;;;5889100;28;20518;-70
2023/08/29 00:48:50;;;;;;;3.00;1.85;;;;;;;;;;5888792;28;20044;-70
2023/08/29 00:51:42;;;;;;;1.92;1.42;;;;;;;;;;5888458;28;20037;-69
2023/08/29 00:54:33;;;;;;;7.22;1.90;;;;;;;;;;5870799;28;20037;-71
2023/08/29 00:57:23;;;;;;;3.53;2.55;;;;;;;;;;5888226;28;20075;-69
2023/08/29 01:00:14;;;;;;;2.55;2.00;;;;;;;;;;5888130;28;20052;-70
2023/08/29 01:03:05;;;;;;;1.58;1.30;;;;;;;;;;5888224;28;20048;-71
2023/08/29 01:05:56;;;;;;;2.55;2.08;;;;;;;;;;5888553;28;20551;-71
2023/08/29 01:08:47;;;;;;;2.53;2.33;;;;;;;;;;5887945;28;20048;-69
2023/08/29 01:11:56;;;;;;;4.93;1.83;;;;;;;;;;5888263;28;20052;-70
2023/08/29 01:14:53;;;;;;;3.42;2.58;;;;;;;;;;5887532;28;20148;-70
2023/08/29 01:18:02;;;;;;;9.85;2.97;;;;;;;;;;5870604;28;20044;-70
2023/08/29 01:21:06;;;;;;;4.40;2.17;;;;;;;;;;5870898;28;20497;-69
2023/08/29 01:24:25;;;;;;;7.25;3.55;;;;;;;;;;5870976;28;20037;-70
2023/08/29 01:27:17;;;;;;;2.63;2.03;;;;;;;;;;5872005;28;20480;-70
2023/08/29 01:30:09;;;;;;;5.95;3.40;;;;;;;;;;5870382;28;20484;-70
2023/08/29 01:33:00;;;;;;;3.38;2.63;;;;;;;;;;5888235;28;20041;-70
2023/08/29 01:35:50;;;;;;;3.17;2.33;;;;;;;;;;5870335;28;20068;-71
2023/08/29 01:38:41;;;;;;;3.72;2.47;;;;;;;;;;5887649;28;20410;-72
2023/08/29 01:41:32;;;;;;;2.25;1.75;;;;;;;;;;5887938;28;20051;-71
2023/08/29 01:44:23;;;;;;;2.53;2.10;;;;;;;;;;5887691;28;20045;-70
2023/08/29 01:47:13;;;;;;;13.57;3.05;;;;;;;;;;5887597;28;20065;-71
2023/08/29 01:50:05;;;;;;;2.20;1.67;;;;;;;;;;5870076;28;20052;-70
2023/08/29 01:52:56;;;;;;;2.25;2.05;;;;;;;;;;5888088;28;20037;-70
2023/08/29 01:55:48;;;;;;;3.15;2.05;;;;;;;;;;5870142;28;20595;-69
2023/08/29 01:58:40;;;;;;;4.78;2.13;;;;;;;;;;5869925;28;20044;-71
2023/08/29 02:01:30;;;;;;;5.10;2.45;;;;;;;;;;5870114;28;20045;-70
2023/08/29 02:04:21;;;;;;;3.72;1.67;;;;;;;;;;5887445;28;20048;-70
2023/08/29 02:07:12;;;;;;;3.38;2.25;;;;;;;;;;5869586;28;20049;-71
2023/08/29 02:10:03;;;;;;;2.30;1.75;;;;;;;;;;5887378;28;20057;-70
2023/08/29 02:12:54;;;;;;;2.42;1.50;;;;;;;;;;5887790;28;20045;-70
2023/08/29 02:15:44;;;;;;;1.70;1.45;;;;;;;;;;5887415;28;20045;-69
2023/08/29 02:18:35;;;;;;;3.08;2.28;;;;;;;;;;5887387;28;20044;-72
2023/08/29 02:21:26;;;;;;;15.40;2.25;;;;;;;;;;5887320;28;20152;-71
2023/08/29 02:24:17;;;;;;;2.30;1.90;;;;;;;;;;5887015;28;20045;-69
2023/08/29 02:27:08;;;;;;;3.83;2.63;;;;;;;;;;5889472;28;20373;-70
2023/08/29 02:29:58;;;;;;;2.85;1.77;;;;;;;;;;5892470;28;20048;-70
2023/08/29 02:32:49;;;;;;;1.92;1.67;;;;;;;;;;5891769;28;20041;-70
2023/08/29 02:35:40;;;;;;;2.28;1.95;;;;;;;;;;5891464;28;20099;-69
2023/08/29 02:38:32;;;;;;;3.05;1.90;;;;;;;;;;5891452;28;20480;-69
2023/08/29 02:41:23;;;;;;;3.95;2.17;;;;;;;;;;5873933;28;20138;-70
2023/08/29 02:44:14;;;;;;;1.50;1.23;;;;;;;;;;5873711;28;20400;-70
2023/08/29 02:47:04;;;;;;;3.00;2.08;;;;;;;;;;5891608;28;20360;-72
2023/08/29 02:49:55;;;;;;;2.53;1.67;;;;;;;;;;5890689;28;20048;-71
2023/08/29 02:52:46;;;;;;;2.47;1.90;;;;;;;;;;5873637;28;20048;-69
2023/08/29 02:55:37;;;;;;;4.38;1.52;;;;;;;;;;5873698;28;20043;-70
2023/08/29 02:58:28;;;;;;;3.40;2.42;;;;;;;;;;5890801;28;20045;-70
2023/08/29 03:01:19;;;;;;;1.98;1.80;;;;;;;;;;5873361;28;20045;-72
2023/08/29 03:04:10;;;;;;;3.28;1.90;;;;;;;;;;5872823;28;20052;-70
2023/08/29 03:07:00;;;;;;;3.08;2.15;;;;;;;;;;5891027;28;20040;-71
2023/08/29 03:09:51;;;;;;;2.92;1.88;;;;;;;;;;5889263;28;20068;-70
2023/08/29 03:12:42;;;;;;;2.55;2.13;;;;;;;;;;5869015;28;20042;-71
2023/08/29 03:15:33;;;;;;;2.97;2.25;;;;;;;;;;5882102;28;20037;-70
2023/08/29 03:18:24;;;;;;;2.75;2.28;;;;;;;;;;5890352;28;20463;-69
2023/08/29 03:21:15;;;;;;;3.13;2.33;;;;;;;;;;5863979;28;20046;-70
2023/08/29 03:24:07;;;;;;;3.85;2.42;;;;;;;;;;5870408;28;20037;-71
2023/08/29 03:26:58;;;;;;;3.08;2.28;;;;;;;;;;5890341;28;20049;-70
2023/08/29 03:29:51;;;;;;;3.13;2.05;;;;;;;;;;5890071;28;20088;-69
2023/08/29 03:32:42;;;;;;;3.55;2.65;;;;;;;;;;5852150;28;20046;-71
2023/08/29 03:35:33;;;;;;;5.35;3.03;;;;;;;;;;5882092;28;20126;-69
2023/08/29 03:38:24;;;;;;;9.80;3.25;;;;;;;;;;5871732;28;20391;-69
2023/08/29 03:41:14;;;;;;;4.50;2.03;;;;;;;;;;5881857;28;20420;-71
2023/08/29 03:44:05;;;;;;;4.50;2.25;;;;;;;;;;5865564;28;20045;-71
2023/08/29 03:46:56;;;;;;;4.70;2.95;;;;;;;;;;5889176;28;20082;-69
2023/08/29 03:49:47;;;;;;;7.68;4.10;;;;;;;;;;5889650;28;20049;-71
2023/08/29 03:52:37;;;;;;;4.03;2.72;;;;;;;;;;5889984;28;20492;-70
2023/08/29 03:55:28;;;;;;;5.43;3.35;;;;;;;;;;5889840;28;20064;-70
2023/08/29 03:58:19;;;;;;;3.85;3.20;;;;;;;;;;5889916;28;20045;-72
2023/08/29 04:01:11;;;;;;;5.03;3.85;;;;;;;;;;5889857;28;20467;-70
2023/08/29 04:04:03;;;;;;;4.50;2.67;;;;;;;;;;5889554;28;20041;-71
2023/08/29 04:06:54;;;;;;;3.28;2.97;;;;;;;;;;5890066;28;20052;-70
2023/08/29 04:09:45;;;;;;;3.65;2.50;;;;;;;;;;5889488;28;20408;-69
2023/08/29 04:12:35;;;;;;;3.55;2.50;;;;;;;;;;5889399;28;20396;-71
2023/08/29 04:15:26;;;;;;;4.28;2.03;;;;;;;;;;5871890;28;20040;-70
2023/08/29 04:18:17;;;;;;;5.03;2.85;;;;;;;;;;5889344;28;20051;-71
2023/08/29 04:21:08;;;;;;;7.47;3.40;;;;;;;;;;5889341;28;20051;-71
2023/08/29 04:23:59;;;;;;;4.13;2.80;;;;;;;;;;5889902;28;20591;-71
2023/08/29 04:26:50;;;;;;;4.82;3.75;;;;;;;;;;5889375;28;20059;-71
2023/08/29 04:29:42;;;;;;;4.38;2.45;;;;;;;;;;5889082;28;20052;-69
2023/08/29 04:32:37;;;;;;;5.93;3.55;;;;;;;;;;5871537;28;20041;-69
2023/08/29 04:35:28;;;;;;;4.25;3.38;;;;;;;;;;5889026;28;20041;-72
2023/08/29 04:38:18;;;;;;;6.75;3.83;;;;;;;;;;5871281;28;20037;-70
2023/08/29 04:41:09;;;;;;;3.65;2.40;;;;;;;;;;5889034;28;20045;-70
2023/08/29 04:44:01;;;;;;;3.00;2.65;;;;;;;;;;5888944;28;20427;-71
2023/08/29 04:46:52;;;;;;;4.40;3.22;;;;;;;;;;5889022;28;20047;-70
2023/08/29 04:49:42;;;;;;;3.78;2.97;;;;;;;;;;5887956;28;20040;-70
2023/08/29 04:52:33;;;;;;;4.88;3.17;;;;;;;;;;5870926;28;20041;-70
2023/08/29 04:55:25;;;;;;;5.20;2.58;;;;;;;;;;5888486;28;20128;-70
2023/08/29 04:58:15;;;;;;;3.28;2.78;;;;;;;;;;5888422;28;20048;-70
2023/08/29 05:01:06;;;;;;;4.13;2.13;;;;;;;;;;5888359;28;20045;-70
2023/08/29 05:03:57;;;;;;;5.15;2.55;;;;;;;;;;5888836;28;20041;-70
2023/08/29 05:06:48;;;;;;;4.10;2.80;;;;;;;;;;5888202;28;20041;-70
2023/08/29 05:09:39;;;;;;;4.88;2.45;;;;;;;;;;5888154;28;20041;-69
2023/08/29 05:12:29;;;;;;;5.40;2.70;;;;;;;;;;5870476;28;20504;-71
2023/08/29 05:15:20;;;;;;;2.88;2.13;;;;;;;;;;5888412;28;20053;-71
2023/08/29 05:18:11;;;;;;;3.55;2.45;;;;;;;;;;5854016;28;20055;-70
2023/08/29 05:21:02;;;;;;;3.85;2.25;;;;;;;;;;5888178;28;20128;-70
2023/08/29 05:23:54;;;;;;;4.20;2.53;;;;;;;;;;5888580;28;20388;-71
2023/08/29 05:26:45;;;;;;;1.88;1.70;;;;;;;;;;5887705;28;20064;-72
2023/08/29 05:29:36;;;;;;;1.23;1.08;;;;;;;;;;5887836;28;20037;-71
2023/08/29 05:32:27;;;;;;;4.10;1.98;;;;;;;;;;5887708;28;20044;-71
2023/08/29 05:35:17;;;;;;;4.22;2.45;;;;;;;;;;5888048;28;20053;-69
2023/08/29 05:38:09;;;;;;;3.88;1.98;;;;;;;;;;5853755;28;20045;-71
2023/08/29 05:40:59;;;;;;;5.55;3.15;;;;;;;;;;5888122;28;20041;-70
2023/08/29 05:43:50;;;;;;;1.55;1.40;;;;;;;;;;5870342;28;20045;-71
2023/08/29 05:46:41;;;;;;;1.77;1.58;;;;;;;;;;5887573;28;20142;-70
2023/08/29 05:49:32;;;;;;;3.15;2.10;;;;;;;;;;5887675;28;20037;-69
2023/08/29 05:52:23;;;;;;;5.43;1.98;;;;;;;;;;5887619;28;20045;-69
2023/08/29 05:55:13;;;;;;;4.80;2.00;;;;;;;;;;5869987;28;20049;-69
2023/08/29 05:58:04;;;;;;;2.85;2.22;;;;;;;;;;5887462;28;20049;-72
2023/08/29 06:00:55;;;;;;;4.88;2.88;;;;;;;;;;5890101;28;20041;-69
2023/08/29 06:03:47;;;;;;;2.80;1.85;;;;;;;;;;5892447;28;20044;-71
2023/08/29 06:06:39;;;;;;;3.40;2.58;;;;;;;;;;5892209;28;20071;-72
2023/08/29 06:09:32;;;;;;;3.33;2.40;;;;;;;;;;5891971;28;20138;-72
2023/08/29 06:12:23;;;;;;;4.22;2.58;;;;;;;;;;5874527;28;20069;-71
2023/08/29 06:15:14;;;;;;;3.25;2.53;;;;;;;;;;5874234;28;20546;-70
2023/08/29 06:18:05;;;;;;;2.78;1.40;;;;;;;;;;5891941;28;20041;-71
2023/08/29 06:20:56;;;;;;;1.92;1.63;;;;;;;;;;5892449;28;20537;-71
2023/08/29 06:23:47;;;;;;;17.50;4.00;;;;;;;;;;5891156;28;20060;-71
2023/08/29 06:26:37;;;;;;;2.17;1.35;;;;;;;;;;5891778;28;20167;-71
2023/08/29 06:29:28;;;;;;;3.03;2.03;;;;;;;;;;5891776;28;20396;-72
2023/08/29 06:32:19;;;;;;;1.17;1.05;;;;;;;;;;5891709;28;20476;-72
2023/08/29 06:35:11;;;;;;;3.78;1.60;;;;;;;;;;5891514;28;20045;-72
2023/08/29 06:38:02;;;;;;;3.10;1.88;;;;;;;;;;5891344;28;20059;-71
2023/08/29 06:40:57;;;;;;;2.38;1.55;;;;;;;;;;5891903;28;20040;-70
2023/08/29 06:43:48;;;;;;;4.35;2.88;;;;;;;;;;5891356;28;20049;-71
2023/08/29 06:46:39;;;;;;;1.85;1.60;;;;;;;;;;5891152;28;20491;-71
2023/08/29 06:49:30;;;;;;;2.15;1.30;;;;;;;;;;5873368;28;20049;-72
2023/08/29 06:52:23;;;;;;;1.83;1.33;;;;;;;;;;5891337;28;20411;-71
2023/08/29 06:55:15;;;;;;;2.67;1.35;;;;;;;;;;5891433;28;20059;-72
2023/08/29 06:58:06;;;;;;;6.10;1.65;;;;;;;;;;5891001;28;20064;-72
2023/08/29 07:00:57;;;;;;;5.15;1.88;;;;;;;;;;5874080;28;20112;-71
2023/08/29 07:03:48;;;;;;;4.00;1.90;;;;;;;;;;5890895;28;20048;-71
2023/08/29 07:06:39;;;;;;;3.17;2.35;;;;;;;;;;5890669;28;20128;-72
2023/08/29 07:09:30;;;;;;;7.40;3.22;;;;;;;;;;5890698;28;20055;-72
2023/08/29 07:12:21;;;;;;;4.78;2.92;;;;;;;;;;5889660;28;20060;-71
2023/08/29 07:15:12;;;;;;;4.65;2.67;;;;;;;;;;5890631;28;20048;-72
2023/08/29 07:18:05;;;;;;;13.02;5.18;;;;;;;;;;5872649;28;20539;-73
2023/08/29 07:20:58;;;;;;;3.22;2.75;;;;;;;;;;5890706;28;20476;-73
2023/08/29 07:23:49;;;;;;;4.55;3.35;;;;;;;;;;5890160;28;20060;-72
2023/08/29 07:26:40;;;;;;;4.00;3.28;;;;;;;;;;5889967;28;20494;-71
2023/08/29 07:29:31;;;;;;;6.93;3.95;;;;;;;;;;5872292;28;20504;-71
2023/08/29 07:32:22;;;;;;;9.48;3.13;;;;;;;;;;5889941;28;20056;-72
2023/08/29 07:35:13;;;;;;;3.25;2.95;;;;;;;;;;5889909;28;20041;-72
2023/08/29 07:38:05;;;;;;;4.35;2.85;;;;;;;;;;5889899;28;20377;-71
2023/08/29 07:40:57;;;;;;;5.68;2.83;;;;;;;;;;5890283;28;20048;-73
2023/08/29 07:43:47;;;;;;;3.67;2.72;;;;;;;;;;5889726;28;20048;-71
2023/08/29 07:46:38;;;;;;;4.03;3.00;;;;;;;;;;5889635;28;20045;-71
2023/08/29 07:49:40;;;;;;;3.95;2.88;;;;;;;;;;5889743;28;20040;-71
2023/08/29 07:52:31;;;;;;;7.63;3.05;;;;;;;;;;5889561;28;20044;-72
2023/08/29 07:55:21;;;;;;;5.03;2.92;;;;;;;;;;5889714;28;20045;-71
2023/08/29 07:58:12;;;;;;;4.60;3.40;;;;;;;;;;5871930;28;20400;-71
2023/08/29 08:01:03;;;;;;;4.43;2.38;;;;;;;;;;5889770;28;20052;-71
2023/08/29 08:03:53;;;;;;;6.63;4.18;;;;;;;;;;5872122;28;20044;-72
2023/08/29 08:06:44;;;;;;;2.92;2.28;;;;;;;;;;5889221;28;20077;-71
2023/08/29 08:09:35;;;;;;;3.40;2.20;;;;;;;;;;5889235;28;20411;-71
2023/08/29 08:12:26;;;;;;;4.10;3.15;;;;;;;;;;5889446;28;20037;-71
2023/08/29 08:15:17;;;;;;;2.67;2.25;;;;;;;;;;5889356;28;20056;-72
2023/08/29 08:18:08;;;;;;;3.50;2.78;;;;;;;;;;5888975;28;20124;-71
2023/08/29 08:20:59;;;;;;;5.80;2.53;;;;;;;;;;5889677;28;20044;-70
2023/08/29 08:23:50;;;;;;;3.97;2.10;;;;;;;;;;5871152;28;20041;-71
2023/08/29 08:26:40;;;;;;;3.33;2.30;;;;;;;;;;5888957;28;20052;-70
2023/08/29 08:29:31;;;;;;;2.85;1.83;;;;;;;;;;5888905;28;20037;-71
2023/08/29 08:32:22;;;;;;;2.88;1.77;;;;;;;;;;5888898;28;20415;-71
2023/08/29 08:35:13;;;;;;;5.95;2.10;;;;;;;;;;5888958;28;20407;-70
2023/08/29 08:38:07;;;;;;;3.55;2.00;;;;;;;;;;5888657;28;20048;-71
2023/08/29 08:40:58;;;;;;;2.00;1.45;;;;;;;;;;5889215;28;20047;-71
2023/08/29 08:43:49;;;;;;;2.05;1.85;;;;;;;;;;5888641;28;20124;-70
2023/08/29 08:46:40;;;;;;;2.67;1.75;;;;;;;;;;5888437;28;20134;-69
2023/08/29 08:49:32;;;;;;;1.80;1.33;;;;;;;;;;5870741;28;20120;-71
2023/08/29 08:52:23;;;;;;;2.30;1.73;;;;;;;;;;5870335;28;20060;-71
2023/08/29 08:55:14;;;;;;;1.40;0.93;;;;;;;;;;5888433;28;20041;-70
2023/08/29 08:58:05;;;;;;;1.20;1.00;;;;;;;;;;5888195;28;20053;-71
2023/08/29 09:00:57;;;;;;;1.60;1.23;;;;;;;;;;5871330;28;20102;-70
2023/08/29 09:03:47;;;;;;;10.85;1.65;;;;;;;;;;5888082;28;20476;-71
2023/08/29 09:06:38;;;;;;;1.20;0.93;;;;;;;;;;5870380;28;20044;-71
2023/08/29 09:09:29;;;;;;;2.33;1.40;;;;;;;;;;5887717;28;20036;-70
2023/08/29 09:12:22;;;;;;;1.95;0.98;;;;;;;;;;5854514;28;20128;-69
2023/08/29 09:15:18;;;;;;;2.15;1.13;;;;;;;;;;5887962;28;20052;-70
2023/08/29 09:18:15;;;;;;;1.77;1.00;;;;;;;;;;5861750;28;20045;-70
2023/08/29 09:21:07;;;;;;;1.15;0.90;;;;;;;;;;5887901;28;20044;-71
2023/08/29 09:23:58;;;;;;;2.10;1.13;;;;;;;;;;5888158;28;20045;-70
2023/08/29 09:26:49;;;;;;;1.55;1.13;;;;;;;;;;5887612;28;20722;-71
2023/08/29 09:29:40;;;;;;;1.60;0.57;;;;;;;;;;5887678;28;20037;-70
2023/08/29 09:32:30;;;;;;;1.23;1.10;;;;;;;;;;5887710;28;20045;-70
2023/08/29 09:35:24;;;;;;;1.60;1.35;;;;;;;;;;5869808;28;20056;-70
2023/08/29 09:38:18;;;;;;;1.88;0.90;;;;;;;;;;5887277;28;20125;-71
2023/08/29 09:41:15;;;;;;;2.90;1.50;;;;;;;;;;5854594;28;20056;-70
2023/08/29 09:44:12;;;;;;;3.33;1.60;;;;;;;;;;5870071;28;20045;-70
2023/08/29 09:47:05;;;;;;;2.53;1.73;;;;;;;;;;5869848;28;20056;-69
2023/08/29 09:49:55;;;;;;;1.10;1.00;;;;;;;;;;5870384;28;20041;-70
2023/08/29 09:52:49;;;;;;;2.30;1.38;;;;;;;;;;5887394;28;20124;-70
2023/08/29 09:55:45;;;;;;;2.20;1.35;;;;;;;;;;5869594;28;20484;-70
2023/08/29 09:58:38;;;;;;;3.13;1.83;;;;;;;;;;5870028;28;20048;-69
2023/08/29 10:01:29;;;;;;;1.45;1.10;;;;;;;;;;5869678;28;20132;-69
2023/08/29 10:04:21;;;;;;;2.33;1.08;;;;;;;;;;5869739;28;20049;-70
2023/08/29 10:07:39;;;;;;;1.50;1.08;;;;;;;;;;5870057;28;20126;-70
2023/08/29 10:10:30;;;;;;;1.35;0.98;;;;;;;;;;5871213;28;20403;-70
2023/08/29 10:13:22;;;;;;;6.03;1.83;;;;;;;;;;5887524;28;20369;-69
2023/08/29 10:16:17;;;;;;;1.42;0.98;;;;;;;;;;5887339;28;20075;-70
2023/08/29 10:19:10;;;;;;;2.13;1.38;;;;;;;;;;5869445;28;20450;-71
2023/08/29 10:22:01;;;;;;;1.05;0.70;;;;;;;;;;5869853;28;20384;-72
2023/08/29 10:24:53;;;;;;;3.33;1.33;;;;;;;;;;5870050;28;20500;-70
2023/08/29 10:27:44;;;;;;;1.10;1.00;;;;;;;;;;5886967;28;20049;-70
2023/08/29 10:30:36;;;;;;;5.00;1.98;;;;;;;;;;5869540;28;20047;-71
2023/08/29 10:33:27;;;;;;;2.00;1.30;;;;;;;;;;5869673;28;20048;-71
2023/08/29 10:36:19;;;;;;;0.98;0.70;;;;;;;;;;5869363;28;20049;-69
2023/08/29 10:39:13;;;;;;;3.80;2.53;;;;;;;;;;5869359;28;20045;-71
2023/08/29 10:42:08;;;;;;;2.05;1.27;;;;;;;;;;5869343;28;20041;-70
2023/08/29 10:44:58;;;;;;;2.80;1.45;;;;;;;;;;5870013;28;20060;-70
2023/08/29 10:47:49;;;;;;;2.60;1.40;;;;;;;;;;5870897;28;20359;-71
2023/08/29 10:50:48;;;;;;;1.58;1.23;;;;;;;;;;5873531;28;20166;-71
2023/08/29 10:53:48;;;;;;;3.25;1.75;;;;;;;;;;5873938;28;20391;-70
2023/08/29 10:56:42;;;;;;;4.00;1.50;;;;;;;;;;5883752;28;20128;-71
2023/08/29 10:59:33;;;;;;;1.98;1.30;;;;;;;;;;5873265;28;20508;-70
2023/08/29 11:02:31;;;;;;;2.92;1.95;;;;;;;;;;5873154;28;20040;-71
2023/08/29 11:05:23;;;;;;;4.32;2.03;;;;;;;;;;5873943;28;20118;-70
2023/08/29 11:08:21;;;;;;;4.18;1.33;;;;;;;;;;5890631;28;20496;-71
2023/08/29 11:11:22;;;;;;;19.77;2.45;;;;;;;;;;5873181;28;20052;-72
2023/08/29 11:14:13;;;;;;;6.20;2.72;;;;;;;;;;5872976;28;20056;-71
2023/08/29 11:17:22;;;;;;;2.75;1.98;;;;;;;;;;5872758;28;20059;-71
2023/08/29 11:20:14;;;;;;;4.85;1.73;;;;;;;;;;5874640;28;20049;-71
2023/08/29 11:23:04;;;;;;;5.13;2.47;;;;;;;;;;5890520;28;20500;-72
2023/08/29 11:25:55;;;;;;;3.33;1.75;;;;;;;;;;5890972;28;20041;-72
2023/08/29 11:28:47;;;;;;;2.95;1.08;;;;;;;;;;5890332;28;20049;-72
2023/08/29 11:31:42;;;;;;;6.53;1.58;;;;;;;;;;5890338;28;20124;-71
2023/08/29 11:34:35;;;;;;;5.30;1.98;;;;;;;;;;5890286;28;20506;-71
2023/08/29 11:37:30;;;;;;;3.10;2.00;;;;;;;;;;5890041;28;20045;-70
2023/08/29 11:40:22;;;;;;;4.03;1.77;;;;;;;;;;5890055;28;20053;-72
2023/08/29 11:43:23;;;;;;;1.83;1.52;;;;;;;;;;5873513;28;20049;-72
2023/08/29 11:46:34;;;;;;;3.55;2.10;;;;;;;;;;5875260;28;20037;-72
2023/08/29 11:49:26;;;;;;;1.92;1.75;;;;;;;;;;5872088;28;20068;-71
2023/08/29 11:52:17;;;;;;;5.30;2.47;;;;;;;;;;5889658;28;20069;-72
2023/08/29 11:55:11;;;;;;;3.78;2.75;;;;;;;;;;5872156;28;20041;-73
2023/08/29 11:58:02;;;;;;;4.05;2.58;;;;;;;;;;5889209;28;20045;-71
2023/08/29 12:00:54;;;;;;;2.60;2.00;;;;;;;;;;5890266;28;20044;-71
2023/08/29 12:03:45;;;;;;;4.40;2.15;;;;;;;;;;5889459;28;20048;-71
2023/08/29 12:06:36;;;;;;;3.22;1.98;;;;;;;;;;5889475;28;20387;-73
2023/08/29 12:09:26;;;;;;;4.18;2.45;;;;;;;;;;5888782;28;20063;-72
2023/08/29 12:12:36;;;;;;;5.70;2.70;;;;;;;;;;5846500;28;20145;-73
2023/08/29 12:15:34;;;;;;;3.75;2.05;;;;;;;;;;5850098;28;20091;-72
2023/08/29 12:18:33;;;;;;;6.45;2.20;;;;;;;;;;5872191;28;20041;-72
2023/08/29 12:21:24;;;;;;;2.55;1.95;;;;;;;;;;5887817;28;20040;-72
2023/08/29 12:24:15;;;;;;;10.05;3.80;;;;;;;;;;5870614;28;20045;-72
2023/08/29 12:27:06;;;;;;;8.75;2.85;;;;;;;;;;5888246;28;20463;-74
2023/08/29 12:29:57;;;;;;;6.75;2.35;;;;;;;;;;5871553;28;20037;-71
2023/08/29 12:32:48;;;;;;;3.03;2.05;;;;;;;;;;5870572;28;20080;-71
2023/08/29 12:35:39;;;;;;;7.03;2.38;;;;;;;;;;5871712;28;20084;-73
2023/08/29 12:38:31;;;;;;;3.75;1.75;;;;;;;;;;5870627;28;20041;-72
2023/08/29 12:41:22;;;;;;;8.90;2.95;;;;;;;;;;5870537;28;20475;-72
2023/08/29 12:44:13;;;;;;;4.32;2.47;;;;;;;;;;5858619;28;20056;-72
2023/08/29 12:47:04;;;;;;;2.88;2.17;;;;;;;;;;5880350;28;20044;-71
2023/08/29 12:49:55;;;;;;;7.20;2.88;;;;;;;;;;5888848;28;20128;-73
2023/08/29 12:52:46;;;;;;;7.05;1.65;;;;;;;;;;5887781;28;20037;-72
2023/08/29 12:55:37;;;;;;;5.68;2.72;;;;;;;;;;5854298;28;20048;-72
2023/08/29 12:58:27;;;;;;;4.13;1.70;;;;;;;;;;5887951;28;20473;-72
2023/08/29 13:01:18;;;;;;;2.85;1.33;;;;;;;;;;5887866;28;20119;-72
2023/08/29 13:04:09;;;;;;;2.30;1.85;;;;;;;;;;5862699;28;20377;-71
2023/08/29 13:07:00;;;;;;;10.13;3.25;;;;;;;;;;5878244;28;20400;-74
2023/08/29 13:09:52;;;;;;;4.03;1.92;;;;;;;;;;5886273;28;20049;-71
2023/08/29 13:12:43;;;;;;;4.43;2.80;;;;;;;;;;5887024;28;20542;-72
2023/08/29 13:15:34;;;;;;;3.58;2.53;;;;;;;;;;5880726;28;20053;-73
2023/08/29 13:18:40;;;;;;;3.63;2.05;;;;;;;;;;5886472;28;20044;-71
2023/08/29 13:21:31;;;;;;;3.72;2.08;;;;;;;;;;5886497;28;20037;-72
2023/08/29 13:24:22;;;;;;;3.33;2.15;;;;;;;;;;5886225;28;20049;-73
2023/08/29 13:27:16;;;;;;;3.33;2.63;;;;;;;;;;5886276;28;20092;-71
2023/08/29 13:30:08;;;;;;;1.73;1.63;;;;;;;;;;5884616;28;20047;-71
2023/08/29 13:32:59;;;;;;;4.85;2.00;;;;;;;;;;5886888;28;20044;-73
2023/08/29 13:35:49;;;;;;;1.88;1.70;;;;;;;;;;5886584;28;20051;-71
2023/08/29 13:38:40;;;;;;;6.10;2.13;;;;;;;;;;5886384;28;20041;-72
2023/08/29 13:41:31;;;;;;;7.70;2.42;;;;;;;;;;5886376;28;20056;-72
2023/08/29 13:44:22;;;;;;;5.47;2.22;;;;;;;;;;5885328;28;20082;-74
2023/08/29 13:47:12;;;;;;;3.42;2.42;;;;;;;;;;5886075;28;20045;-73
2023/08/29 13:50:04;;;;;;;5.80;2.90;;;;;;;;;;5878363;28;20045;-73
2023/08/29 13:52:58;;;;;;;4.53;2.55;;;;;;;;;;5883369;28;20488;-72
2023/08/29 13:55:52;;;;;;;4.38;2.90;;;;;;;;;;5885900;28;20041;-72
2023/08/29 13:58:43;;;;;;;3.08;2.55;;;;;;;;;;5886499;28;20484;-72
2023/08/29 14:01:35;;;;;;;4.45;2.75;;;;;;;;;;5886159;28;20044;-73
2023/08/29 14:04:26;;;;;;;6.95;3.30;;;;;;;;;;5867728;28;20118;-71
2023/08/29 14:07:17;;;;;;;2.25;2.00;;;;;;;;;;5884751;28;20054;-72
2023/08/29 14:10:08;;;;;;;4.75;2.55;;;;;;;;;;5851499;28;20041;-72
2023/08/29 14:12:59;;;;;;;4.85;2.90;;;;;;;;;;5868039;28;20084;-73
2023/08/29 14:16:03;;;;;;;3.30;2.20;;;;;;;;;;5883210;28;20048;-73
2023/08/29 14:18:54;;;;;;;6.00;3.10;;;;;;;;;;5884964;28;20504;-70
2023/08/29 14:21:45;;;;;;;6.65;2.90;;;;;;;;;;5887169;28;20128;-72
2023/08/29 14:24:35;;;;;;;5.43;2.53;;;;;;;;;;5888468;28;20468;-71
2023/08/29 14:27:26;;;;;;;4.65;2.78;;;;;;;;;;5890439;28;20511;-71
2023/08/29 14:30:17;;;;;;;6.82;3.95;;;;;;;;;;5890355;28;20071;-71
2023/08/29 14:33:08;;;;;;;12.15;4.10;;;;;;;;;;5872529;28;20045;-71
2023/08/29 14:36:03;;;;;;;6.50;3.92;;;;;;;;;;5886251;28;20499;-71
2023/08/29 14:38:54;;;;;;;6.13;4.53;;;;;;;;;;5890730;28;20116;-72
2023/08/29 14:41:46;;;;;;;7.35;4.45;;;;;;;;;;5889828;28;20052;-72
2023/08/29 14:44:37;;;;;;;15.60;3.45;;;;;;;;;;5889963;28;20048;-71
2023/08/29 14:47:28;;;;;;;7.80;4.28;;;;;;;;;;5890111;28;20055;-71
2023/08/29 14:50:19;;;;;;;7.47;5.50;;;;;;;;;;5890143;28;20068;-72
2023/08/29 14:53:12;;;;;;;6.20;3.08;;;;;;;;;;5889781;28;20049;-72
2023/08/29 14:56:03;;;;;;;7.22;4.00;;;;;;;;;;5878731;28;20638;-72
2023/08/29 14:58:54;;;;;;;7.40;4.85;;;;;;;;;;5873233;28;20064;-73
2023/08/29 15:01:44;;;;;;;5.78;4.18;;;;;;;;;;5871823;28;20484;-72
2023/08/29 15:04:35;;;;;;;7.90;5.18;;;;;;;;;;5889549;28;20400;-73
2023/08/29 15:07:26;;;;;;;14.63;5.90;;;;;;;;;;5871896;28;20496;-72
2023/08/29 15:10:17;;;;;;;8.40;5.20;;;;;;;;;;5867609;28;20042;-71
2023/08/29 15:13:08;;;;;;;10.93;4.70;;;;;;;;;;5889905;28;20056;-71
2023/08/29 15:16:05;;;;;;;10.23;5.50;;;;;;;;;;5890383;28;20157;-71
2023/08/29 15:18:57;;;;;;;6.57;5.13;;;;;;;;;;5873009;28;20163;-72
2023/08/29 15:21:48;;;;;;;8.32;5.05;;;;;;;;;;5889957;28;20118;-72
2023/08/29 15:24:38;;;;;;;11.70;5.32;;;;;;;;;;5865497;28;20496;-72
2023/08/29 15:27:30;;;;;;;8.40;2.85;;;;;;;;;;5885527;28;20056;-72
2023/08/29 15:30:20;;;;;;;8.85;4.30;;;;;;;;;;5888109;28;20060;-71
2023/08/29 15:33:11;;;;;;;11.32;4.15;;;;;;;;;;5888634;28;20049;-72
2023/08/29 15:36:02;;;;;;;5.18;2.83;;;;;;;;;;5878097;28;20041;-75
2023/08/29 15:38:53;;;;;;;3.10;2.65;;;;;;;;;;5889592;28;20048;-71
2023/08/29 15:41:44;;;;;;;5.40;3.70;;;;;;;;;;5889248;28;20053;-72
2023/08/29 15:44:38;;;;;;;5.30;3.20;;;;;;;;;;5868828;28;20052;-71
2023/08/29 15:47:29;;;;;;;4.60;3.17;;;;;;;;;;5867769;28;20052;-72
2023/08/29 15:50:19;;;;;;;5.38;2.28;;;;;;;;;;5887248;28;20131;-71
2023/08/29 15:53:11;;;;;;;4.30;2.15;;;;;;;;;;5888601;28;20071;-72
2023/08/29 15:56:04;;;;;;;4.78;2.65;;;;;;;;;;5886251;28;20094;-71
2023/08/29 15:58:55;;;;;;;2.90;2.00;;;;;;;;;;5884140;28;20045;-72
2023/08/29 16:01:46;;;;;;;4.45;2.72;;;;;;;;;;5885653;28;20053;-73
2023/08/29 16:04:39;;;;;;;2.75;1.75;;;;;;;;;;5868128;28;20452;-71
2023/08/29 16:07:30;;;;;;;2.25;1.77;;;;;;;;;;5865647;28;20051;-72
2023/08/29 16:10:21;;;;;;;3.33;1.92;;;;;;;;;;5870384;28;20052;-71
2023/08/29 16:13:12;;;;;;;3.45;2.22;;;;;;;;;;5888461;28;20412;-71
2023/08/29 16:16:08;;;;;;;2.78;2.17;;;;;;;;;;5888920;28;20041;-71
2023/08/29 16:18:59;;;;;;;4.55;2.28;;;;;;;;;;5870375;28;20128;-72
2023/08/29 16:21:49;;;;;;;5.70;2.85;;;;;;;;;;5888936;28;20583;-71
2023/08/29 16:24:40;;;;;;;6.68;2.40;;;;;;;;;;5888585;28;20060;-72
2023/08/29 16:27:37;;;;;;;2.75;1.83;;;;;;;;;;5888085;28;20037;-72
2023/08/29 16:30:30;;;;;;;6.40;2.15;;;;;;;;;;5871079;28;20179;-72
2023/08/29 16:33:20;;;;;;;4.47;2.35;;;;;;;;;;5877957;28;20123;-72
2023/08/29 16:36:11;;;;;;;2.03;1.75;;;;;;;;;;5888418;28;20049;-71
2023/08/29 16:39:02;;;;;;;5.70;2.65;;;;;;;;;;5887737;28;20051;-73
2023/08/29 16:41:53;;;;;;;4.63;2.67;;;;;;;;;;5888548;28;20387;-73
2023/08/29 16:44:44;;;;;;;3.25;2.45;;;;;;;;;;5869613;28;20044;-72
2023/08/29 16:47:34;;;;;;;3.28;2.13;;;;;;;;;;5843802;28;20704;-71
2023/08/29 16:50:25;;;;;;;7.13;2.97;;;;;;;;;;5884780;28;20049;-72
2023/08/29 16:53:16;;;;;;;4.22;2.22;;;;;;;;;;5884457;28;20045;-72
2023/08/29 16:56:07;;;;;;;3.60;2.25;;;;;;;;;;5869514;28;20048;-71
2023/08/29 16:59:01;;;;;;;5.85;2.15;;;;;;;;;;5867263;28;20128;-72
2023/08/29 17:01:52;;;;;;;5.13;2.08;;;;;;;;;;5887649;28;20048;-72
2023/08/29 17:04:45;;;;;;;5.95;2.88;;;;;;;;;;5870060;28;20400;-72
2023/08/29 17:07:35;;;;;;;4.15;1.65;;;;;;;;;;5887370;28;20040;-72
2023/08/29 17:10:26;;;;;;;3.88;2.63;;;;;;;;;;5854063;28;20037;-72